sensor_id;sensor_type;location;lat;lon;timestamp;P1;durP1;ratioP1;P2;durP2;ratioP2
8466;SDS011;4270;48.148;11.648;2022-08-21T00:00:04;2.93;;;2.43;;
8466;SDS011;4270;48.148;11.648;2022-08-21T00:02:29;2.70;;;2.50;;
8466;SDS011;4270;48.148;11.648;2022-08-21T00:04:54;2.60;;;2.30;;
8466;SDS011;4270;48.148;11.648;2022-08-21T00:07:20;2.70;;;2.43;;
8466;SDS011;4270;48.148;11.648;2022-08-21T00:09:46;2.90;;;2.40;;
8466;SDS011;4270;48.148;11.648;2022-08-21T00:12:12;3.17;;;2.60;;
8466;SDS011;4270;48.148;11.648;2022-08-21T00:14:37;2.47;;;2.27;;
8466;SDS011;4270;48.148;11.648;2022-08-21T00:17:03;2.67;;;2.47;;
8466;SDS011;4270;48.148;11.648;2022-08-21T00:19:29;2.67;;;2.47;;
8466;SDS011;4270;48.148;11.648;2022-08-21T00:21:54;3.10;;;2.80;;
8466;SDS011;4270;48.148;11.648;2022-08-21T00:24:20;5.83;;;2.90;;
8466;SDS011;4270;48.148;11.648;2022-08-21T00:26:46;3.80;;;2.60;;
8466;SDS011;4270;48.148;11.648;2022-08-21T00:29:11;2.60;;;2.40;;
8466;SDS011;4270;48.148;11.648;2022-08-21T00:31:37;2.80;;;2.37;;
8466;SDS011;4270;48.148;11.648;2022-08-21T00:34:02;2.47;;;2.00;;
8466;SDS011;4270;48.148;11.648;2022-08-21T00:36:28;3.33;;;2.63;;
8466;SDS011;4270;48.148;11.648;2022-08-21T00:38:53;2.40;;;2.20;;
8466;SDS011;4270;48.148;11.648;2022-08-21T00:41:18;2.70;;;2.43;;
8466;SDS011;4270;48.148;11.648;2022-08-21T00:43:44;2.50;;;2.30;;
8466;SDS011;4270;48.148;11.648;2022-08-21T00:46:09;2.57;;;2.37;;
8466;SDS011;4270;48.148;11.648;2022-08-21T00:48:35;3.67;;;2.27;;
8466;SDS011;4270;48.148;11.648;2022-08-21T00:51:13;2.30;;;2.10;;
8466;SDS011;4270;48.148;11.648;2022-08-21T00:53:41;3.03;;;2.40;;
8466;SDS011;4270;48.148;11.648;2022-08-21T00:56:07;3.03;;;2.10;;
8466;SDS011;4270;48.148;11.648;2022-08-21T00:58:34;2.50;;;2.03;;
8466;SDS011;4270;48.148;11.648;2022-08-21T01:01:01;2.43;;;2.23;;
8466;SDS011;4270;48.148;11.648;2022-08-21T01:03:26;2.70;;;2.50;;
8466;SDS011;4270;48.148;11.648;2022-08-21T01:05:52;2.83;;;2.53;;
8466;SDS011;4270;48.148;11.648;2022-08-21T01:08:18;4.50;;;2.40;;
8466;SDS011;4270;48.148;11.648;2022-08-21T01:10:43;2.50;;;2.30;;
8466;SDS011;4270;48.148;11.648;2022-08-21T01:13:09;2.47;;;2.27;;
8466;SDS011;4270;48.148;11.648;2022-08-21T01:15:38;4.20;;;2.37;;
8466;SDS011;4270;48.148;11.648;2022-08-21T01:18:04;2.27;;;2.07;;
8466;SDS011;4270;48.148;11.648;2022-08-21T01:20:31;3.70;;;1.90;;
8466;SDS011;4270;48.148;11.648;2022-08-21T01:22:56;2.70;;;2.50;;
8466;SDS011;4270;48.148;11.648;2022-08-21T01:25:21;2.63;;;2.27;;
8466;SDS011;4270;48.148;11.648;2022-08-21T01:27:46;2.40;;;2.20;;
8466;SDS011;4270;48.148;11.648;2022-08-21T01:32:37;2.57;;;2.30;;
8466;SDS011;4270;48.148;11.648;2022-08-21T01:35:03;3.80;;;2.30;;
8466;SDS011;4270;48.148;11.648;2022-08-21T01:37:28;3.10;;;2.20;;
8466;SDS011;4270;48.148;11.648;2022-08-21T01:39:53;3.70;;;2.30;;
8466;SDS011;4270;48.148;11.648;2022-08-21T01:42:18;2.00;;;1.80;;
8466;SDS011;4270;48.148;11.648;2022-08-21T01:44:44;2.80;;;2.50;;
8466;SDS011;4270;48.148;11.648;2022-08-21T01:47:10;2.50;;;2.30;;
8466;SDS011;4270;48.148;11.648;2022-08-21T01:49:35;2.53;;;1.83;;
8466;SDS011;4270;48.148;11.648;2022-08-21T01:52:02;1.80;;;1.70;;
8466;SDS011;4270;48.148;11.648;2022-08-21T01:54:27;2.50;;;2.30;;
8466;SDS011;4270;48.148;11.648;2022-08-21T01:56:53;2.23;;;1.93;;
8466;SDS011;4270;48.148;11.648;2022-08-21T01:59:19;2.50;;;2.00;;
8466;SDS011;4270;48.148;11.648;2022-08-21T02:01:44;2.00;;;1.90;;
8466;SDS011;4270;48.148;11.648;2022-08-21T02:04:10;2.43;;;2.23;;
8466;SDS011;4270;48.148;11.648;2022-08-21T02:06:35;2.00;;;1.90;;
8466;SDS011;4270;48.148;11.648;2022-08-21T02:09:02;3.03;;;2.10;;
8466;SDS011;4270;48.148;11.648;2022-08-21T02:11:27;2.20;;;2.00;;
8466;SDS011;4270;48.148;11.648;2022-08-21T02:13:52;3.30;;;2.47;;
8466;SDS011;4270;48.148;11.648;2022-08-21T02:16:17;2.80;;;2.20;;
8466;SDS011;4270;48.148;11.648;2022-08-21T02:18:43;3.37;;;2.03;;
8466;SDS011;4270;48.148;11.648;2022-08-21T02:21:08;2.43;;;2.23;;
8466;SDS011;4270;48.148;11.648;2022-08-21T02:23:33;4.67;;;2.10;;
8466;SDS011;4270;48.148;11.648;2022-08-21T02:25:59;2.40;;;2.20;;
8466;SDS011;4270;48.148;11.648;2022-08-21T02:28:25;3.90;;;2.30;;
8466;SDS011;4270;48.148;11.648;2022-08-21T02:30:50;3.87;;;2.20;;
8466;SDS011;4270;48.148;11.648;2022-08-21T02:33:16;2.57;;;2.37;;
8466;SDS011;4270;48.148;11.648;2022-08-21T02:35:42;2.43;;;2.23;;
8466;SDS011;4270;48.148;11.648;2022-08-21T02:38:09;2.33;;;2.13;;
8466;SDS011;4270;48.148;11.648;2022-08-21T02:40:36;2.50;;;2.30;;
8466;SDS011;4270;48.148;11.648;2022-08-21T02:43:02;2.33;;;2.13;;
8466;SDS011;4270;48.148;11.648;2022-08-21T02:45:28;2.73;;;2.10;;
8466;SDS011;4270;48.148;11.648;2022-08-21T02:47:59;2.50;;;2.20;;
8466;SDS011;4270;48.148;11.648;2022-08-21T02:50:25;2.70;;;2.13;;
8466;SDS011;4270;48.148;11.648;2022-08-21T02:52:51;2.50;;;2.30;;
8466;SDS011;4270;48.148;11.648;2022-08-21T02:55:17;3.83;;;2.50;;
8466;SDS011;4270;48.148;11.648;2022-08-21T02:57:43;3.10;;;2.80;;
8466;SDS011;4270;48.148;11.648;2022-08-21T03:00:08;2.40;;;2.20;;
8466;SDS011;4270;48.148;11.648;2022-08-21T03:02:35;2.17;;;1.97;;
8466;SDS011;4270;48.148;11.648;2022-08-21T03:05:00;2.90;;;2.13;;
8466;SDS011;4270;48.148;11.648;2022-08-21T03:07:25;2.70;;;2.37;;
8466;SDS011;4270;48.148;11.648;2022-08-21T03:09:51;2.50;;;2.30;;
8466;SDS011;4270;48.148;11.648;2022-08-21T03:12:16;2.50;;;2.30;;
8466;SDS011;4270;48.148;11.648;2022-08-21T03:14:41;3.07;;;2.20;;
8466;SDS011;4270;48.148;11.648;2022-08-21T03:17:07;4.50;;;2.30;;
8466;SDS011;4270;48.148;11.648;2022-08-21T03:19:32;2.70;;;2.17;;
8466;SDS011;4270;48.148;11.648;2022-08-21T03:21:57;2.33;;;2.20;;
8466;SDS011;4270;48.148;11.648;2022-08-21T03:24:22;2.63;;;2.43;;
8466;SDS011;4270;48.148;11.648;2022-08-21T03:26:47;3.57;;;2.70;;
8466;SDS011;4270;48.148;11.648;2022-08-21T03:29:13;2.10;;;1.90;;
8466;SDS011;4270;48.148;11.648;2022-08-21T03:31:38;6.50;;;2.17;;
8466;SDS011;4270;48.148;11.648;2022-08-21T03:34:03;2.80;;;2.60;;
8466;SDS011;4270;48.148;11.648;2022-08-21T03:36:28;2.80;;;2.60;;
8466;SDS011;4270;48.148;11.648;2022-08-21T03:38:53;3.40;;;2.50;;
8466;SDS011;4270;48.148;11.648;2022-08-21T03:41:19;2.93;;;2.73;;
8466;SDS011;4270;48.148;11.648;2022-08-21T03:43:44;3.03;;;2.73;;
8466;SDS011;4270;48.148;11.648;2022-08-21T03:46:09;2.60;;;2.40;;
8466;SDS011;4270;48.148;11.648;2022-08-21T03:48:35;2.50;;;2.30;;
8466;SDS011;4270;48.148;11.648;2022-08-21T03:51:01;2.80;;;2.60;;
8466;SDS011;4270;48.148;11.648;2022-08-21T03:53:26;3.30;;;2.50;;
8466;SDS011;4270;48.148;11.648;2022-08-21T03:55:52;2.90;;;2.60;;
8466;SDS011;4270;48.148;11.648;2022-08-21T03:58:19;2.70;;;2.50;;
8466;SDS011;4270;48.148;11.648;2022-08-21T04:00:45;2.70;;;2.50;;
8466;SDS011;4270;48.148;11.648;2022-08-21T04:03:11;3.03;;;2.73;;
8466;SDS011;4270;48.148;11.648;2022-08-21T04:05:36;4.60;;;2.70;;
8466;SDS011;4270;48.148;11.648;2022-08-21T04:08:03;3.40;;;3.10;;
8466;SDS011;4270;48.148;11.648;2022-08-21T04:10:31;3.23;;;2.93;;
8466;SDS011;4270;48.148;11.648;2022-08-21T04:12:56;2.30;;;2.10;;
8466;SDS011;4270;48.148;11.648;2022-08-21T04:15:22;2.77;;;2.47;;
8466;SDS011;4270;48.148;11.648;2022-08-21T04:17:47;2.77;;;2.57;;
8466;SDS011;4270;48.148;11.648;2022-08-21T04:20:13;5.40;;;2.57;;
8466;SDS011;4270;48.148;11.648;2022-08-21T04:22:38;2.97;;;2.77;;
8466;SDS011;4270;48.148;11.648;2022-08-21T04:25:04;5.13;;;2.90;;
8466;SDS011;4270;48.148;11.648;2022-08-21T04:27:29;3.10;;;2.80;;
8466;SDS011;4270;48.148;11.648;2022-08-21T04:29:54;2.90;;;2.23;;
8466;SDS011;4270;48.148;11.648;2022-08-21T04:32:24;4.40;;;3.10;;
8466;SDS011;4270;48.148;11.648;2022-08-21T04:34:49;2.70;;;2.43;;
8466;SDS011;4270;48.148;11.648;2022-08-21T04:37:14;3.30;;;3.00;;
8466;SDS011;4270;48.148;11.648;2022-08-21T04:39:40;3.40;;;2.50;;
8466;SDS011;4270;48.148;11.648;2022-08-21T04:42:05;3.57;;;2.80;;
8466;SDS011;4270;48.148;11.648;2022-08-21T04:44:31;5.00;;;3.30;;
8466;SDS011;4270;48.148;11.648;2022-08-21T04:46:56;3.40;;;2.47;;
8466;SDS011;4270;48.148;11.648;2022-08-21T04:49:22;3.20;;;2.57;;
8466;SDS011;4270;48.148;11.648;2022-08-21T04:51:47;2.70;;;2.03;;
8466;SDS011;4270;48.148;11.648;2022-08-21T04:54:14;2.90;;;2.33;;
8466;SDS011;4270;48.148;11.648;2022-08-21T04:56:45;3.90;;;3.10;;
8466;SDS011;4270;48.148;11.648;2022-08-21T04:59:14;2.27;;;2.07;;
8466;SDS011;4270;48.148;11.648;2022-08-21T05:01:41;2.50;;;2.30;;
8466;SDS011;4270;48.148;11.648;2022-08-21T05:04:07;4.97;;;2.50;;
8466;SDS011;4270;48.148;11.648;2022-08-21T05:06:33;2.37;;;2.17;;
8466;SDS011;4270;48.148;11.648;2022-08-21T05:08:59;3.20;;;2.40;;
8466;SDS011;4270;48.148;11.648;2022-08-21T05:11:25;3.20;;;2.47;;
8466;SDS011;4270;48.148;11.648;2022-08-21T05:13:50;2.30;;;2.10;;
8466;SDS011;4270;48.148;11.648;2022-08-21T05:16:15;3.20;;;2.50;;
8466;SDS011;4270;48.148;11.648;2022-08-21T05:18:41;2.60;;;2.30;;
8466;SDS011;4270;48.148;11.648;2022-08-21T05:21:06;2.50;;;2.30;;
8466;SDS011;4270;48.148;11.648;2022-08-21T05:23:31;3.60;;;2.40;;
8466;SDS011;4270;48.148;11.648;2022-08-21T05:25:56;3.40;;;2.30;;
8466;SDS011;4270;48.148;11.648;2022-08-21T05:28:22;2.63;;;2.43;;
8466;SDS011;4270;48.148;11.648;2022-08-21T05:30:47;2.57;;;1.90;;
8466;SDS011;4270;48.148;11.648;2022-08-21T05:33:13;2.20;;;2.00;;
8466;SDS011;4270;48.148;11.648;2022-08-21T05:35:38;2.30;;;2.00;;
8466;SDS011;4270;48.148;11.648;2022-08-21T05:38:03;3.60;;;2.30;;
8466;SDS011;4270;48.148;11.648;2022-08-21T05:40:29;2.60;;;2.23;;
8466;SDS011;4270;48.148;11.648;2022-08-21T05:42:55;3.13;;;2.20;;
8466;SDS011;4270;48.148;11.648;2022-08-21T05:45:21;3.47;;;2.40;;
8466;SDS011;4270;48.148;11.648;2022-08-21T05:47:46;4.10;;;2.20;;
8466;SDS011;4270;48.148;11.648;2022-08-21T05:50:11;3.07;;;2.77;;
8466;SDS011;4270;48.148;11.648;2022-08-21T05:52:37;2.43;;;2.23;;
8466;SDS011;4270;48.148;11.648;2022-08-21T05:55:02;2.53;;;2.33;;
8466;SDS011;4270;48.148;11.648;2022-08-21T05:57:28;2.30;;;2.10;;
8466;SDS011;4270;48.148;11.648;2022-08-21T05:59:53;2.73;;;2.53;;
8466;SDS011;4270;48.148;11.648;2022-08-21T06:02:18;2.90;;;2.60;;
8466;SDS011;4270;48.148;11.648;2022-08-21T06:04:44;3.23;;;2.20;;
8466;SDS011;4270;48.148;11.648;2022-08-21T06:07:09;2.37;;;2.17;;
8466;SDS011;4270;48.148;11.648;2022-08-21T06:09:34;4.50;;;2.57;;
8466;SDS011;4270;48.148;11.648;2022-08-21T06:12:03;3.10;;;2.83;;
8466;SDS011;4270;48.148;11.648;2022-08-21T06:14:29;4.10;;;2.50;;
8466;SDS011;4270;48.148;11.648;2022-08-21T06:16:54;3.60;;;2.70;;
8466;SDS011;4270;48.148;11.648;2022-08-21T06:19:19;4.57;;;2.40;;
8466;SDS011;4270;48.148;11.648;2022-08-21T06:21:44;2.90;;;2.17;;
8466;SDS011;4270;48.148;11.648;2022-08-21T06:24:09;4.57;;;2.53;;
8466;SDS011;4270;48.148;11.648;2022-08-21T06:26:34;2.30;;;2.10;;
8466;SDS011;4270;48.148;11.648;2022-08-21T06:29:00;2.33;;;2.10;;
8466;SDS011;4270;48.148;11.648;2022-08-21T06:31:26;2.83;;;2.37;;
8466;SDS011;4270;48.148;11.648;2022-08-21T06:33:51;2.57;;;1.90;;
8466;SDS011;4270;48.148;11.648;2022-08-21T06:36:17;2.57;;;2.03;;
8466;SDS011;4270;48.148;11.648;2022-08-21T06:38:42;2.10;;;1.90;;
8466;SDS011;4270;48.148;11.648;2022-08-21T06:41:08;3.30;;;1.80;;
8466;SDS011;4270;48.148;11.648;2022-08-21T06:43:33;4.77;;;1.93;;
8466;SDS011;4270;48.148;11.648;2022-08-21T06:45:58;3.27;;;2.00;;
8466;SDS011;4270;48.148;11.648;2022-08-21T06:48:24;3.87;;;2.30;;
8466;SDS011;4270;48.148;11.648;2022-08-21T06:50:49;3.17;;;2.27;;
8466;SDS011;4270;48.148;11.648;2022-08-21T06:53:19;3.33;;;2.20;;
8466;SDS011;4270;48.148;11.648;2022-08-21T06:55:44;2.10;;;1.90;;
8466;SDS011;4270;48.148;11.648;2022-08-21T06:58:09;3.77;;;1.90;;
8466;SDS011;4270;48.148;11.648;2022-08-21T07:00:36;4.73;;;2.27;;
8466;SDS011;4270;48.148;11.648;2022-08-21T07:03:03;2.60;;;2.10;;
8466;SDS011;4270;48.148;11.648;2022-08-21T07:05:28;3.10;;;2.20;;
8466;SDS011;4270;48.148;11.648;2022-08-21T07:07:54;2.63;;;2.40;;
8466;SDS011;4270;48.148;11.648;2022-08-21T07:10:19;3.20;;;2.60;;
8466;SDS011;4270;48.148;11.648;2022-08-21T07:12:44;4.07;;;2.27;;
8466;SDS011;4270;48.148;11.648;2022-08-21T07:15:10;2.57;;;2.37;;
8466;SDS011;4270;48.148;11.648;2022-08-21T07:17:35;2.93;;;2.43;;
8466;SDS011;4270;48.148;11.648;2022-08-21T07:20:00;4.50;;;2.37;;
8466;SDS011;4270;48.148;11.648;2022-08-21T07:22:26;2.50;;;2.30;;
8466;SDS011;4270;48.148;11.648;2022-08-21T07:24:52;3.17;;;2.80;;
8466;SDS011;4270;48.148;11.648;2022-08-21T07:27:18;3.27;;;2.63;;
8466;SDS011;4270;48.148;11.648;2022-08-21T07:29:43;3.40;;;2.87;;
8466;SDS011;4270;48.148;11.648;2022-08-21T07:32:08;5.27;;;3.10;;
8466;SDS011;4270;48.148;11.648;2022-08-21T07:34:33;3.10;;;2.87;;
8466;SDS011;4270;48.148;11.648;2022-08-21T07:36:58;4.03;;;2.80;;
8466;SDS011;4270;48.148;11.648;2022-08-21T07:39:24;4.23;;;3.30;;
8466;SDS011;4270;48.148;11.648;2022-08-21T07:41:49;5.30;;;2.57;;
8466;SDS011;4270;48.148;11.648;2022-08-21T07:44:14;32.27;;;3.60;;
8466;SDS011;4270;48.148;11.648;2022-08-21T07:46:39;3.37;;;2.60;;
8466;SDS011;4270;48.148;11.648;2022-08-21T07:49:05;3.07;;;2.87;;
8466;SDS011;4270;48.148;11.648;2022-08-21T07:51:30;3.90;;;2.80;;
8466;SDS011;4270;48.148;11.648;2022-08-21T07:53:56;3.20;;;2.90;;
8466;SDS011;4270;48.148;11.648;2022-08-21T07:56:22;3.30;;;2.77;;
8466;SDS011;4270;48.148;11.648;2022-08-21T07:58:47;3.63;;;2.90;;
8466;SDS011;4270;48.148;11.648;2022-08-21T08:01:13;3.43;;;3.13;;
8466;SDS011;4270;48.148;11.648;2022-08-21T08:03:38;3.93;;;2.90;;
8466;SDS011;4270;48.148;11.648;2022-08-21T08:06:04;3.50;;;3.17;;
8466;SDS011;4270;48.148;11.648;2022-08-21T08:08:29;3.70;;;3.40;;
8466;SDS011;4270;48.148;11.648;2022-08-21T08:10:55;3.53;;;3.23;;
8466;SDS011;4270;48.148;11.648;2022-08-21T08:13:21;3.37;;;3.10;;
8466;SDS011;4270;48.148;11.648;2022-08-21T08:15:46;3.10;;;2.90;;
8466;SDS011;4270;48.148;11.648;2022-08-21T08:18:11;3.65;;;3.35;;
8466;SDS011;4270;48.148;11.648;2022-08-21T08:20:36;3.47;;;3.15;;
8466;SDS011;4270;48.148;11.648;2022-08-21T08:23:02;3.85;;;3.50;;
8466;SDS011;4270;48.148;11.648;2022-08-21T08:25:27;3.55;;;3.33;;
8466;SDS011;4270;48.148;11.648;2022-08-21T08:27:52;3.60;;;3.30;;
8466;SDS011;4270;48.148;11.648;2022-08-21T08:30:18;3.70;;;3.40;;
8466;SDS011;4270;48.148;11.648;2022-08-21T08:32:44;3.92;;;3.53;;
8466;SDS011;4270;48.148;11.648;2022-08-21T08:35:09;6.30;;;3.40;;
8466;SDS011;4270;48.148;11.648;2022-08-21T08:37:36;3.30;;;3.00;;
8466;SDS011;4270;48.148;11.648;2022-08-21T08:40:03;3.67;;;3.17;;
8466;SDS011;4270;48.148;11.648;2022-08-21T08:42:33;4.07;;;3.78;;
8466;SDS011;4270;48.148;11.648;2022-08-21T08:45:00;3.97;;;3.67;;
8466;SDS011;4270;48.148;11.648;2022-08-21T08:47:26;4.00;;;3.70;;
8466;SDS011;4270;48.148;11.648;2022-08-21T08:52:19;4.65;;;4.25;;
8466;SDS011;4270;48.148;11.648;2022-08-21T08:54:47;3.95;;;3.60;;
8466;SDS011;4270;48.148;11.648;2022-08-21T08:57:20;3.67;;;3.47;;
8466;SDS011;4270;48.148;11.648;2022-08-21T08:59:46;3.97;;;3.67;;
8466;SDS011;4270;48.148;11.648;2022-08-21T09:02:13;3.80;;;3.50;;
8466;SDS011;4270;48.148;11.648;2022-08-21T09:04:38;3.60;;;3.30;;
8466;SDS011;4270;48.148;11.648;2022-08-21T09:09:51;3.90;;;3.63;;
8466;SDS011;4270;48.148;11.648;2022-08-21T09:12:34;4.38;;;3.97;;
8466;SDS011;4270;48.148;11.648;2022-08-21T09:27:22;4.13;;;3.75;;
8466;SDS011;4270;48.148;11.648;2022-08-21T09:29:49;3.25;;;2.95;;
8466;SDS011;4270;48.148;11.648;2022-08-21T09:34:42;4.05;;;3.65;;
8466;SDS011;4270;48.148;11.648;2022-08-21T09:37:15;4.30;;;3.50;;
8466;SDS011;4270;48.148;11.648;2022-08-21T09:39:41;4.93;;;3.55;;
8466;SDS011;4270;48.148;11.648;2022-08-21T09:42:07;3.43;;;2.60;;
8466;SDS011;4270;48.148;11.648;2022-08-21T09:44:33;3.13;;;2.83;;
8466;SDS011;4270;48.148;11.648;2022-08-21T09:47:01;3.80;;;3.35;;
8466;SDS011;4270;48.148;11.648;2022-08-21T09:49:27;4.07;;;3.33;;
8466;SDS011;4270;48.148;11.648;2022-08-21T09:51:52;4.15;;;3.85;;
8466;SDS011;4270;48.148;11.648;2022-08-21T09:54:29;3.53;;;3.03;;
8466;SDS011;4270;48.148;11.648;2022-08-21T09:56:56;4.57;;;3.03;;
8466;SDS011;4270;48.148;11.648;2022-08-21T09:59:40;4.38;;;3.00;;
8466;SDS011;4270;48.148;11.648;2022-08-21T10:05:14;3.57;;;3.23;;
8466;SDS011;4270;48.148;11.648;2022-08-21T10:07:37;5.07;;;2.47;;
8466;SDS011;4270;48.148;11.648;2022-08-21T10:10:13;3.53;;;3.22;;
8466;SDS011;4270;48.148;11.648;2022-08-21T10:15:21;3.78;;;3.22;;
8466;SDS011;4270;48.148;11.648;2022-08-21T10:18:03;4.55;;;3.45;;
8466;SDS011;4270;48.148;11.648;2022-08-21T10:21:13;3.20;;;2.60;;
8466;SDS011;4270;48.148;11.648;2022-08-21T10:23:38;3.40;;;3.10;;
8466;SDS011;4270;48.148;11.648;2022-08-21T10:28:52;3.83;;;3.10;;
8466;SDS011;4270;48.148;11.648;2022-08-21T10:39:33;2.70;;;2.50;;
8466;SDS011;4270;48.148;11.648;2022-08-21T10:47:35;3.80;;;3.30;;
8466;SDS011;4270;48.148;11.648;2022-08-21T10:50:05;3.50;;;3.20;;
8466;SDS011;4270;48.148;11.648;2022-08-21T10:52:36;3.10;;;2.63;;
8466;SDS011;4270;48.148;11.648;2022-08-21T10:55:13;3.17;;;2.87;;
8466;SDS011;4270;48.148;11.648;2022-08-21T10:57:40;3.00;;;2.70;;
8466;SDS011;4270;48.148;11.648;2022-08-21T11:00:18;2.80;;;2.60;;
8466;SDS011;4270;48.148;11.648;2022-08-21T11:02:49;2.80;;;2.60;;
8466;SDS011;4270;48.148;11.648;2022-08-21T11:05:19;3.40;;;3.10;;
8466;SDS011;4270;48.148;11.648;2022-08-21T11:07:47;2.80;;;2.60;;
8466;SDS011;4270;48.148;11.648;2022-08-21T11:10:24;3.70;;;3.30;;
8466;SDS011;4270;48.148;11.648;2022-08-21T11:12:54;3.23;;;2.57;;
8466;SDS011;4270;48.148;11.648;2022-08-21T11:15:26;4.00;;;3.20;;
8466;SDS011;4270;48.148;11.648;2022-08-21T11:20:39;3.60;;;3.30;;
8466;SDS011;4270;48.148;11.648;2022-08-21T11:23:17;4.77;;;3.00;;
8466;SDS011;4270;48.148;11.648;2022-08-21T11:25:45;3.30;;;2.93;;
8466;SDS011;4270;48.148;11.648;2022-08-21T11:28:23;3.77;;;3.47;;
8466;SDS011;4270;48.148;11.648;2022-08-21T11:38:39;3.57;;;3.27;;
8466;SDS011;4270;48.148;11.648;2022-08-21T11:41:23;3.47;;;3.17;;
8466;SDS011;4270;48.148;11.648;2022-08-21T11:46:25;4.37;;;3.70;;
8466;SDS011;4270;48.148;11.648;2022-08-21T11:51:32;3.43;;;3.13;;
8466;SDS011;4270;48.148;11.648;2022-08-21T11:54:08;4.10;;;2.60;;
8466;SDS011;4270;48.148;11.648;2022-08-21T11:56:39;3.10;;;2.90;;
8466;SDS011;4270;48.148;11.648;2022-08-21T11:59:11;3.50;;;3.00;;
8466;SDS011;4270;48.148;11.648;2022-08-21T12:01:42;3.10;;;2.77;;
8466;SDS011;4270;48.148;11.648;2022-08-21T12:06:35;3.17;;;2.97;;
8466;SDS011;4270;48.148;11.648;2022-08-21T12:09:03;4.00;;;3.03;;
8466;SDS011;4270;48.148;11.648;2022-08-21T12:11:29;3.93;;;3.50;;
8466;SDS011;4270;48.148;11.648;2022-08-21T12:19:28;3.27;;;3.07;;
8466;SDS011;4270;48.148;11.648;2022-08-21T12:22:07;3.30;;;3.00;;
8466;SDS011;4270;48.148;11.648;2022-08-21T12:24:48;3.63;;;3.33;;
8466;SDS011;4270;48.148;11.648;2022-08-21T12:27:19;2.97;;;2.77;;
8466;SDS011;4270;48.148;11.648;2022-08-21T12:29:56;4.00;;;3.00;;
8466;SDS011;4270;48.148;11.648;2022-08-21T12:32:26;5.20;;;2.97;;
8466;SDS011;4270;48.148;11.648;2022-08-21T12:34:53;3.47;;;2.60;;
8466;SDS011;4270;48.148;11.648;2022-08-21T12:39:54;3.17;;;2.87;;
8466;SDS011;4270;48.148;11.648;2022-08-21T12:42:22;2.80;;;2.60;;
8466;SDS011;4270;48.148;11.648;2022-08-21T12:44:53;3.50;;;3.10;;
8466;SDS011;4270;48.148;11.648;2022-08-21T12:50:15;3.90;;;3.00;;
8466;SDS011;4270;48.148;11.648;2022-08-21T12:52:45;3.43;;;3.13;;
8466;SDS011;4270;48.148;11.648;2022-08-21T12:55:14;3.13;;;2.50;;
8466;SDS011;4270;48.148;11.648;2022-08-21T12:57:43;3.20;;;2.90;;
8466;SDS011;4270;48.148;11.648;2022-08-21T13:00:09;3.30;;;3.00;;
8466;SDS011;4270;48.148;11.648;2022-08-21T13:02:39;3.30;;;3.10;;
8466;SDS011;4270;48.148;11.648;2022-08-21T13:05:08;4.70;;;3.33;;
8466;SDS011;4270;48.148;11.648;2022-08-21T13:07:37;2.77;;;2.57;;
8466;SDS011;4270;48.148;11.648;2022-08-21T13:10:05;3.00;;;2.80;;
8466;SDS011;4270;48.148;11.648;2022-08-21T13:12:31;3.63;;;2.80;;
8466;SDS011;4270;48.148;11.648;2022-08-21T13:14:58;2.93;;;2.73;;
8466;SDS011;4270;48.148;11.648;2022-08-21T13:17:25;5.03;;;2.87;;
8466;SDS011;4270;48.148;11.648;2022-08-21T13:19:55;3.40;;;2.90;;
8466;SDS011;4270;48.148;11.648;2022-08-21T13:22:20;3.23;;;2.93;;
8466;SDS011;4270;48.148;11.648;2022-08-21T13:24:46;3.53;;;2.93;;
8466;SDS011;4270;48.148;11.648;2022-08-21T13:27:22;2.67;;;2.47;;
8466;SDS011;4270;48.148;11.648;2022-08-21T13:29:48;4.00;;;3.17;;
8466;SDS011;4270;48.148;11.648;2022-08-21T13:32:18;3.53;;;3.23;;
8466;SDS011;4270;48.148;11.648;2022-08-21T13:34:46;3.10;;;2.80;;
8466;SDS011;4270;48.148;11.648;2022-08-21T13:37:11;3.67;;;3.37;;
8466;SDS011;4270;48.148;11.648;2022-08-21T13:39:36;5.10;;;3.20;;
8466;SDS011;4270;48.148;11.648;2022-08-21T13:42:03;3.27;;;2.97;;
8466;SDS011;4270;48.148;11.648;2022-08-21T13:44:35;3.20;;;2.90;;
8466;SDS011;4270;48.148;11.648;2022-08-21T13:47:00;2.87;;;2.67;;
8466;SDS011;4270;48.148;11.648;2022-08-21T13:49:29;3.10;;;2.60;;
8466;SDS011;4270;48.148;11.648;2022-08-21T13:51:55;2.97;;;2.67;;
8466;SDS011;4270;48.148;11.648;2022-08-21T13:54:22;3.13;;;2.83;;
8466;SDS011;4270;48.148;11.648;2022-08-21T13:56:48;3.10;;;2.80;;
8466;SDS011;4270;48.148;11.648;2022-08-21T13:59:22;3.27;;;2.63;;
8466;SDS011;4270;48.148;11.648;2022-08-21T14:01:50;3.23;;;2.60;;
8466;SDS011;4270;48.148;11.648;2022-08-21T14:04:18;2.60;;;2.40;;
8466;SDS011;4270;48.148;11.648;2022-08-21T14:06:45;3.60;;;3.17;;
8466;SDS011;4270;48.148;11.648;2022-08-21T14:09:12;2.77;;;2.53;;
8466;SDS011;4270;48.148;11.648;2022-08-21T14:11:38;2.70;;;2.50;;
8466;SDS011;4270;48.148;11.648;2022-08-21T14:14:05;3.53;;;3.23;;
8466;SDS011;4270;48.148;11.648;2022-08-21T14:16:46;3.23;;;2.90;;
8466;SDS011;4270;48.148;11.648;2022-08-21T14:19:21;2.97;;;2.57;;
8466;SDS011;4270;48.148;11.648;2022-08-21T14:21:46;3.60;;;2.80;;
8466;SDS011;4270;48.148;11.648;2022-08-21T14:24:14;3.13;;;2.83;;
8466;SDS011;4270;48.148;11.648;2022-08-21T14:26:48;5.50;;;3.30;;
8466;SDS011;4270;48.148;11.648;2022-08-21T14:29:15;3.27;;;2.60;;
8466;SDS011;4270;48.148;11.648;2022-08-21T14:31:41;2.97;;;2.57;;
8466;SDS011;4270;48.148;11.648;2022-08-21T14:34:08;4.87;;;3.50;;
8466;SDS011;4270;48.148;11.648;2022-08-21T14:36:34;4.10;;;3.70;;
8466;SDS011;4270;48.148;11.648;2022-08-21T14:38:59;4.13;;;3.20;;
8466;SDS011;4270;48.148;11.648;2022-08-21T14:41:25;3.20;;;2.90;;
8466;SDS011;4270;48.148;11.648;2022-08-21T14:43:52;4.23;;;2.80;;
8466;SDS011;4270;48.148;11.648;2022-08-21T14:46:20;3.87;;;2.87;;
8466;SDS011;4270;48.148;11.648;2022-08-21T14:48:46;2.57;;;2.20;;
8466;SDS011;4270;48.148;11.648;2022-08-21T14:51:12;3.40;;;2.50;;
8466;SDS011;4270;48.148;11.648;2022-08-21T14:53:37;2.73;;;2.40;;
8466;SDS011;4270;48.148;11.648;2022-08-21T14:56:03;3.00;;;2.70;;
8466;SDS011;4270;48.148;11.648;2022-08-21T14:58:36;2.70;;;2.50;;
8466;SDS011;4270;48.148;11.648;2022-08-21T15:01:02;5.90;;;2.80;;
8466;SDS011;4270;48.148;11.648;2022-08-21T15:03:28;2.90;;;2.40;;
8466;SDS011;4270;48.148;11.648;2022-08-21T15:05:53;5.03;;;2.73;;
8466;SDS011;4270;48.148;11.648;2022-08-21T15:08:19;3.70;;;2.67;;
8466;SDS011;4270;48.148;11.648;2022-08-21T15:10:44;3.33;;;2.47;;
8466;SDS011;4270;48.148;11.648;2022-08-21T15:13:10;4.30;;;2.50;;
8466;SDS011;4270;48.148;11.648;2022-08-21T15:15:39;3.77;;;2.60;;
8466;SDS011;4270;48.148;11.648;2022-08-21T15:18:05;3.43;;;2.67;;
8466;SDS011;4270;48.148;11.648;2022-08-21T15:20:30;3.03;;;2.70;;
8466;SDS011;4270;48.148;11.648;2022-08-21T15:22:55;3.40;;;3.10;;
8466;SDS011;4270;48.148;11.648;2022-08-21T15:25:20;3.77;;;2.67;;
8466;SDS011;4270;48.148;11.648;2022-08-21T15:27:46;3.20;;;2.90;;
8466;SDS011;4270;48.148;11.648;2022-08-21T15:30:11;3.30;;;2.57;;
8466;SDS011;4270;48.148;11.648;2022-08-21T15:32:36;4.83;;;2.80;;
8466;SDS011;4270;48.148;11.648;2022-08-21T15:35:02;5.43;;;3.23;;
8466;SDS011;4270;48.148;11.648;2022-08-21T15:37:28;2.87;;;2.57;;
8466;SDS011;4270;48.148;11.648;2022-08-21T15:39:55;5.03;;;3.87;;
8466;SDS011;4270;48.148;11.648;2022-08-21T15:42:20;4.33;;;3.00;;
8466;SDS011;4270;48.148;11.648;2022-08-21T15:44:46;4.33;;;3.33;;
8466;SDS011;4270;48.148;11.648;2022-08-21T15:47:13;4.47;;;3.07;;
8466;SDS011;4270;48.148;11.648;2022-08-21T15:49:39;3.03;;;2.73;;
8466;SDS011;4270;48.148;11.648;2022-08-21T15:52:04;5.73;;;3.40;;
8466;SDS011;4270;48.148;11.648;2022-08-21T15:54:29;4.70;;;3.77;;
8466;SDS011;4270;48.148;11.648;2022-08-21T15:56:55;3.40;;;3.10;;
8466;SDS011;4270;48.148;11.648;2022-08-21T15:59:20;4.03;;;3.37;;
8466;SDS011;4270;48.148;11.648;2022-08-21T16:01:47;3.80;;;3.23;;
8466;SDS011;4270;48.148;11.648;2022-08-21T16:04:15;4.17;;;3.30;;
8466;SDS011;4270;48.148;11.648;2022-08-21T16:06:43;4.10;;;3.37;;
8466;SDS011;4270;48.148;11.648;2022-08-21T16:09:08;4.37;;;3.80;;
8466;SDS011;4270;48.148;11.648;2022-08-21T16:11:33;3.43;;;3.00;;